createdAt,value
2023-04-26T00:00:37.310Z,3.80
2023-04-26T00:02:39.996Z,3.80
2023-04-26T00:04:43.011Z,3.80
2023-04-26T00:06:45.828Z,3.80
2023-04-26T00:08:48.319Z,3.70
2023-04-26T00:10:50.846Z,3.70
2023-04-26T00:12:53.307Z,3.70
2023-04-26T00:14:55.751Z,3.70
2023-04-26T00:16:58.284Z,3.70
2023-04-26T00:19:00.739Z,3.70
2023-04-26T00:21:03.389Z,3.70
2023-04-26T00:23:07.772Z,3.70
2023-04-26T00:25:11.921Z,3.70
2023-04-26T00:27:14.390Z,3.70
2023-04-26T00:29:17.055Z,3.70
2023-04-26T00:31:19.646Z,3.70
2023-04-26T00:33:22.331Z,3.60
2023-04-26T00:35:25.104Z,3.50
2023-04-26T00:37:27.746Z,3.50
2023-04-26T00:39:30.314Z,3.50
2023-04-26T00:41:32.880Z,3.50
2023-04-26T00:43:35.439Z,3.50
2023-04-26T00:45:37.941Z,3.50
2023-04-26T00:47:40.887Z,3.40
2023-04-26T00:49:43.724Z,3.40
2023-04-26T00:51:46.915Z,3.40
2023-04-26T00:53:49.558Z,3.30
2023-04-26T00:55:52.293Z,3.30
2023-04-26T00:57:55.164Z,3.30
2023-04-26T00:59:57.758Z,3.30
2023-04-26T01:02:00.390Z,3.30
2023-04-26T01:04:03.370Z,3.20
2023-04-26T01:06:06.060Z,3.20
2023-04-26T01:08:08.831Z,3.20
2023-04-26T01:10:12.792Z,3.10
2023-04-26T01:12:15.702Z,3.00
2023-04-26T01:14:18.568Z,3.00
2023-04-26T01:16:21.146Z,3.00
2023-04-26T01:18:24.118Z,2.90
2023-04-26T01:20:26.868Z,2.90
2023-04-26T01:22:33.494Z,2.90
2023-04-26T01:24:36.172Z,2.80
2023-04-26T01:26:41.276Z,2.70
2023-04-26T01:28:45.684Z,2.70
2023-04-26T01:30:48.407Z,2.70
2023-04-26T01:32:51.083Z,2.70
2023-04-26T01:34:53.724Z,2.60
2023-04-26T01:36:56.349Z,2.70
2023-04-26T01:38:58.816Z,2.60
2023-04-26T01:41:01.415Z,2.50
2023-04-26T01:43:03.908Z,2.50
2023-04-26T01:47:21.953Z,2.50
2023-04-26T01:49:24.497Z,2.40
2023-04-26T01:51:26.979Z,2.50
2023-04-26T01:53:29.595Z,2.50
2023-04-26T01:55:34.364Z,2.60
2023-04-26T01:57:36.914Z,2.60
2023-04-26T01:59:39.623Z,2.70
2023-04-26T02:01:42.594Z,2.70
2023-04-26T02:03:46.298Z,2.60
2023-04-26T02:05:49.056Z,2.60
2023-04-26T02:07:51.668Z,2.70
2023-04-26T02:09:54.276Z,2.70
2023-04-26T02:11:56.878Z,2.70
2023-04-26T02:14:01.688Z,2.60
2023-04-26T02:16:04.907Z,2.60
2023-04-26T02:18:09.017Z,2.60
2023-04-26T02:20:12.426Z,2.60
2023-04-26T02:22:15.554Z,2.70
2023-04-26T02:24:18.209Z,2.60
2023-04-26T02:26:21.223Z,2.60
2023-04-26T02:28:23.824Z,2.70
2023-04-26T02:30:26.435Z,2.60
2023-04-26T02:32:29.097Z,2.60
2023-04-26T02:34:33.134Z,2.60
2023-04-26T02:36:35.919Z,2.60
2023-04-26T02:38:38.388Z,2.60
2023-04-26T02:40:40.966Z,2.60
2023-04-26T02:42:43.812Z,2.60
2023-04-26T02:44:46.689Z,2.50
2023-04-26T02:46:49.356Z,2.60
2023-04-26T02:48:52.263Z,2.60
2023-04-26T02:50:55.058Z,2.60
2023-04-26T02:52:57.633Z,2.60
2023-04-26T02:55:00.515Z,2.60
2023-04-26T02:57:03.164Z,2.50
2023-04-26T02:59:06.581Z,2.60
2023-04-26T03:01:09.892Z,2.50
2023-04-26T03:03:12.578Z,2.50
2023-04-26T03:05:15.351Z,2.50
2023-04-26T03:07:17.972Z,2.50
2023-04-26T03:09:20.524Z,2.50
2023-04-26T03:11:23.112Z,2.50
2023-04-26T03:13:25.747Z,2.50
2023-04-26T03:15:29.316Z,2.40
2023-04-26T03:17:32.003Z,2.40
2023-04-26T03:21:52.881Z,2.30
2023-04-26T03:23:55.568Z,2.30
2023-04-26T03:25:58.726Z,2.30
2023-04-26T03:28:01.356Z,2.30
2023-04-26T03:30:05.055Z,2.30
2023-04-26T03:32:07.872Z,2.30
2023-04-26T03:34:11.041Z,2.30
2023-04-26T03:36:13.715Z,2.30
2023-04-26T03:38:16.891Z,2.20
2023-04-26T03:40:19.660Z,2.20
2023-04-26T03:42:22.234Z,2.20
2023-04-26T03:44:24.894Z,2.10
2023-04-26T03:46:27.433Z,2.10
2023-04-26T03:48:30.057Z,2.10
2023-04-26T03:50:32.701Z,2.10
2023-04-26T03:52:36.047Z,2.10
2023-04-26T03:54:38.717Z,2.10
2023-04-26T03:56:41.404Z,2.10
2023-04-26T03:58:43.984Z,2.10
2023-04-26T04:00:46.825Z,2.20
2023-04-26T04:02:49.497Z,2.10
2023-04-26T04:04:54.177Z,2.10
2023-04-26T04:06:56.942Z,2.00
2023-04-26T04:08:59.524Z,2.00
2023-04-26T04:11:02.995Z,1.90
2023-04-26T04:13:05.763Z,1.90
2023-04-26T04:15:10.201Z,1.90
2023-04-26T04:17:14.693Z,1.80
2023-04-26T04:19:17.580Z,1.80
2023-04-26T04:21:20.458Z,1.80
2023-04-26T04:23:23.089Z,1.70
2023-04-26T04:25:25.760Z,1.70
2023-04-26T04:27:28.963Z,1.70
2023-04-26T04:29:32.142Z,1.60
2023-04-26T04:31:34.795Z,1.60
2023-04-26T04:33:37.657Z,1.60
2023-04-26T04:35:43.129Z,1.60
2023-04-26T04:37:45.938Z,1.50
2023-04-26T04:39:48.947Z,1.60
2023-04-26T04:41:53.744Z,1.60
2023-04-26T04:43:56.506Z,1.60
2023-04-26T04:48:15.546Z,1.70
2023-04-26T04:50:18.484Z,1.80
2023-04-26T04:52:21.314Z,1.70
2023-04-26T04:54:24.293Z,1.80
2023-04-26T04:56:26.890Z,1.80
2023-04-26T04:58:29.469Z,1.90
2023-04-26T05:00:32.039Z,1.90
2023-04-26T05:02:36.673Z,1.90
2023-04-26T05:04:39.544Z,2.00
2023-04-26T05:06:42.410Z,2.00
2023-04-26T05:08:45.621Z,2.00
2023-04-26T05:10:48.302Z,2.10
2023-04-26T05:12:50.885Z,2.10
2023-04-26T05:14:53.453Z,2.20
2023-04-26T05:16:56.205Z,2.30
2023-04-26T05:18:59.122Z,2.30
2023-04-26T05:21:01.698Z,2.40
2023-04-26T05:23:04.550Z,2.50
2023-04-26T05:25:09.946Z,2.50
2023-04-26T05:27:13.145Z,2.70
2023-04-26T05:29:17.921Z,2.90
2023-04-26T05:31:22.315Z,3.00
2023-04-26T05:33:27.365Z,3.20
2023-04-26T05:35:34.513Z,3.20
2023-04-26T05:37:39.280Z,3.30
2023-04-26T05:39:42.040Z,3.30
2023-04-26T05:41:44.646Z,3.40
2023-04-26T05:43:47.502Z,3.40
2023-04-26T05:45:53.025Z,3.50
2023-04-26T05:47:57.404Z,3.60
2023-04-26T05:50:06.834Z,3.70
2023-04-26T05:52:09.618Z,3.70
2023-04-26T05:54:12.903Z,3.80
2023-04-26T05:56:15.919Z,3.90
2023-04-26T05:58:18.775Z,4.00
2023-04-26T06:00:23.011Z,4.20
2023-04-26T06:02:26.251Z,4.20
2023-04-26T06:04:29.361Z,4.20
2023-04-26T06:06:33.924Z,4.20
2023-04-26T06:08:36.579Z,4.30
2023-04-26T06:10:39.219Z,4.40
2023-04-26T06:12:41.821Z,4.50
2023-04-26T06:14:44.513Z,4.50
2023-04-26T06:16:48.863Z,4.50
2023-04-26T06:18:51.506Z,4.60
2023-04-26T06:20:53.986Z,4.70
2023-04-26T06:22:56.546Z,4.70
2023-04-26T06:24:59.361Z,4.80
2023-04-26T06:27:02.086Z,4.80
2023-04-26T06:29:05.346Z,4.90
2023-04-26T06:31:08.076Z,4.90
2023-04-26T06:33:11.627Z,5.00
2023-04-26T06:35:15.241Z,5.10
2023-04-26T06:37:18.160Z,5.30
2023-04-26T06:39:20.942Z,5.30
2023-04-26T06:41:23.560Z,5.40
2023-04-26T06:43:27.255Z,5.50
2023-04-26T06:45:32.031Z,5.50
2023-04-26T06:47:36.466Z,5.50
2023-04-26T06:49:38.917Z,5.60
2023-04-26T06:51:41.413Z,5.60
2023-04-26T06:53:43.891Z,5.70
2023-04-26T06:55:46.494Z,5.80
2023-04-26T06:57:49.232Z,5.80
2023-04-26T06:59:51.706Z,5.80
2023-04-26T07:01:54.268Z,5.90
2023-04-26T07:03:57.422Z,6.00
2023-04-26T07:06:00.296Z,6.10
2023-04-26T07:08:03.180Z,6.20
2023-04-26T07:10:06.734Z,6.20
2023-04-26T07:12:10.894Z,6.30
2023-04-26T07:14:13.521Z,6.40
2023-04-26T07:16:16.042Z,6.50
2023-04-26T07:18:18.591Z,6.60
2023-04-26T07:20:22.250Z,6.60
2023-04-26T07:22:24.799Z,6.40
2023-04-26T07:24:27.398Z,6.50
2023-04-26T07:26:29.974Z,6.50
2023-04-26T07:28:32.478Z,6.50
2023-04-26T07:30:35.123Z,6.60
2023-04-26T07:32:37.867Z,6.70
2023-04-26T07:34:40.444Z,6.80
2023-04-26T07:36:42.949Z,6.90
2023-04-26T07:38:45.488Z,7.00
2023-04-26T07:40:47.961Z,7.20
2023-04-26T07:42:50.444Z,7.20
2023-04-26T07:44:52.978Z,7.30
2023-04-26T07:46:55.424Z,7.30
2023-04-26T07:48:58.123Z,7.20
2023-04-26T07:51:07.762Z,7.30
2023-04-26T07:53:10.277Z,7.30
2023-04-26T07:55:12.827Z,7.40
2023-04-26T07:57:15.918Z,7.60
2023-04-26T07:59:18.534Z,7.80
2023-04-26T08:01:21.325Z,8.00
2023-04-26T08:03:24.094Z,8.10
2023-04-26T08:05:27.245Z,8.10
2023-04-26T08:07:30.476Z,8.00
2023-04-26T08:09:33.094Z,8.10
2023-04-26T08:11:35.636Z,8.10
2023-04-26T08:13:38.212Z,8.10
2023-04-26T08:15:41.081Z,8.00
2023-04-26T08:17:43.600Z,7.90
2023-04-26T08:19:46.165Z,7.80
2023-04-26T08:21:48.965Z,7.80
2023-04-26T08:23:52.078Z,7.90
2023-04-26T08:25:54.839Z,7.90
2023-04-26T08:27:58.077Z,8.00
2023-04-26T08:30:01.237Z,8.20
2023-04-26T08:32:03.777Z,8.50
2023-04-26T08:34:08.082Z,8.60
2023-04-26T08:36:11.817Z,8.70
2023-04-26T08:38:14.377Z,8.80
2023-04-26T08:40:18.650Z,8.70
2023-04-26T08:42:22.948Z,8.60
2023-04-26T08:44:25.433Z,8.50
2023-04-26T08:46:28.661Z,8.60
2023-04-26T08:48:33.018Z,8.60
2023-04-26T08:50:36.490Z,8.50
2023-04-26T08:52:40.476Z,8.40
2023-04-26T08:54:44.252Z,8.30
2023-04-26T08:56:47.080Z,8.30
2023-04-26T08:58:50.331Z,8.40
2023-04-26T09:03:08.960Z,8.50
2023-04-26T09:05:12.846Z,8.50
2023-04-26T09:07:17.242Z,8.70
2023-04-26T09:09:21.067Z,9.00
2023-04-26T09:11:23.693Z,9.30
2023-04-26T09:13:29.162Z,9.40
2023-04-26T09:15:31.674Z,9.30
2023-04-26T09:17:36.048Z,9.40
2023-04-26T09:19:39.626Z,9.40
2023-04-26T09:21:44.308Z,9.50
2023-04-26T09:23:59.459Z,9.80
2023-04-26T09:26:30.366Z,9.70
2023-04-26T09:28:32.856Z,9.40
2023-04-26T09:30:39.167Z,9.10
2023-04-26T09:32:49.321Z,9.00
2023-04-26T09:34:51.779Z,9.00
2023-04-26T09:36:56.338Z,9.20
2023-04-26T09:38:58.835Z,9.10
2023-04-26T09:41:01.605Z,9.10
2023-04-26T09:43:04.824Z,9.40
2023-04-26T09:45:08.199Z,9.70
2023-04-26T09:47:13.210Z,9.60
2023-04-26T09:49:16.138Z,9.70
2023-04-26T09:51:18.773Z,9.80
2023-04-26T09:53:28.132Z,9.60
2023-04-26T09:55:35.260Z,9.40
2023-04-26T09:57:37.198Z,9.20
2023-04-26T09:59:40.078Z,9.10
2023-04-26T10:01:42.707Z,9.00
2023-04-26T10:03:45.638Z,9.00
2023-04-26T10:05:48.500Z,9.20
2023-04-26T10:07:51.378Z,9.30
2023-04-26T10:09:54.516Z,9.50
2023-04-26T10:11:58.288Z,10.10
2023-04-26T10:14:00.956Z,9.80
2023-04-26T10:16:03.982Z,9.60
2023-04-26T10:18:06.805Z,9.50
2023-04-26T10:20:11.721Z,9.50
2023-04-26T10:22:17.345Z,9.60
2023-04-26T10:24:19.960Z,9.60
2023-04-26T10:26:40.381Z,9.70
2023-04-26T10:29:01.383Z,9.80
2023-04-26T10:31:00.751Z,9.90
2023-04-26T10:33:21.076Z,9.80
2023-04-26T10:35:24.200Z,9.80
2023-04-26T10:37:27.167Z,9.70
2023-04-26T10:39:29.936Z,9.70
2023-04-26T10:41:33.459Z,9.70
2023-04-26T10:43:37.703Z,9.70
2023-04-26T10:45:41.144Z,9.80
2023-04-26T10:47:43.774Z,9.90
2023-04-26T10:52:12.075Z,9.90
2023-04-26T10:54:15.227Z,10.00
2023-04-26T10:56:31.173Z,10.10
2023-04-26T10:58:33.989Z,10.20
2023-04-26T11:00:37.076Z,10.30
2023-04-26T11:02:46.557Z,10.40
2023-04-26T11:04:52.580Z,10.60
2023-04-26T11:06:57.241Z,10.50
2023-04-26T11:09:00.503Z,10.50
2023-04-26T11:11:08.430Z,10.40
2023-04-26T11:13:11.840Z,10.30
2023-04-26T11:15:14.300Z,10.30
2023-04-26T11:17:17.060Z,10.10
2023-04-26T11:19:19.541Z,9.90
2023-04-26T11:21:22.188Z,9.70
2023-04-26T11:23:25.172Z,9.70
2023-04-26T11:25:28.309Z,9.70
2023-04-26T11:27:30.779Z,9.60
2023-04-26T11:29:33.244Z,9.60
2023-04-26T11:31:36.755Z,9.70
2023-04-26T11:33:40.917Z,9.60
2023-04-26T11:35:43.529Z,9.60
2023-04-26T11:37:46.399Z,9.50
2023-04-26T11:39:50.721Z,9.50
2023-04-26T11:41:55.005Z,9.60
2023-04-26T11:43:59.192Z,9.70
2023-04-26T11:46:02.318Z,10.00
2023-04-26T11:48:06.043Z,10.40
2023-04-26T11:50:09.819Z,10.40
2023-04-26T11:52:12.732Z,10.10
2023-04-26T11:54:27.716Z,10.00
2023-04-26T11:56:30.444Z,9.90
2023-04-26T11:58:32.942Z,9.80
2023-04-26T12:00:35.536Z,9.80
2023-04-26T12:02:38.273Z,9.80
2023-04-26T12:04:41.630Z,9.70
2023-04-26T12:06:46.778Z,9.60
2023-04-26T12:08:51.289Z,9.60
2023-04-26T12:10:54.068Z,9.50
2023-04-26T12:12:58.529Z,9.50
2023-04-26T12:15:01.074Z,9.50
2023-04-26T12:17:05.673Z,9.50
2023-04-26T12:19:08.439Z,9.60
2023-04-26T12:21:11.086Z,9.80
2023-04-26T12:23:15.377Z,10.10
2023-04-26T12:25:19.018Z,10.40
2023-04-26T12:27:21.734Z,10.90
2023-04-26T12:29:24.219Z,11.40
2023-04-26T12:31:26.940Z,11.10
2023-04-26T12:33:30.385Z,11.40
2023-04-26T12:35:33.856Z,11.20
2023-04-26T12:37:36.604Z,10.90
2023-04-26T12:39:39.079Z,10.60
2023-04-26T12:41:42.017Z,10.50
2023-04-26T12:43:44.636Z,10.50
2023-04-26T12:45:47.492Z,10.50
2023-04-26T12:47:50.585Z,10.50
2023-04-26T12:49:53.168Z,10.60
2023-04-26T12:51:55.694Z,10.60
2023-04-26T12:53:58.191Z,10.50
2023-04-26T12:56:00.714Z,10.50
2023-04-26T12:58:03.249Z,10.50
2023-04-26T13:02:22.565Z,10.50
2023-04-26T13:04:25.526Z,10.50
2023-04-26T13:06:28.765Z,10.40
2023-04-26T13:08:31.501Z,10.50
2023-04-26T13:10:34.059Z,10.50
2023-04-26T13:12:36.525Z,10.40
2023-04-26T13:14:39.057Z,10.30
2023-04-26T13:16:43.213Z,10.30
2023-04-26T13:18:46.187Z,10.30
2023-04-26T13:20:48.696Z,10.30
2023-04-26T13:22:51.186Z,10.40
2023-04-26T13:24:53.875Z,10.50
2023-04-26T13:26:57.329Z,10.70
2023-04-26T13:28:59.838Z,10.90
2023-04-26T13:31:02.679Z,10.90
2023-04-26T13:33:05.280Z,11.00
2023-04-26T13:35:08.511Z,11.10
2023-04-26T13:37:11.512Z,11.10
2023-04-26T13:39:14.076Z,11.20
2023-04-26T13:41:16.731Z,11.40
2023-04-26T13:43:19.283Z,11.70
2023-04-26T13:45:21.874Z,11.90
2023-04-26T13:47:24.462Z,12.10
2023-04-26T13:49:27.136Z,11.90
2023-04-26T13:51:30.175Z,11.70
2023-04-26T13:53:34.798Z,11.70
2023-04-26T13:55:37.964Z,11.70
2023-04-26T13:57:41.203Z,11.70
2023-04-26T13:59:44.335Z,11.50
2023-04-26T14:01:48.469Z,11.60
2023-04-26T14:03:55.749Z,11.50
2023-04-26T14:06:09.111Z,11.70
2023-04-26T14:08:32.630Z,11.80
2023-04-26T14:10:56.643Z,11.90
2023-04-26T14:13:00.690Z,12.10
2023-04-26T14:15:07.255Z,12.10
2023-04-26T14:17:10.915Z,12.00
2023-04-26T14:19:15.070Z,11.80
2023-04-26T14:21:18.392Z,11.80
2023-04-26T14:23:21.486Z,12.00
2023-04-26T14:25:25.535Z,12.30
2023-04-26T14:27:28.759Z,12.40
2023-04-26T14:29:31.767Z,12.30
2023-04-26T14:31:35.183Z,12.10
2023-04-26T14:33:38.446Z,12.10
2023-04-26T14:35:41.572Z,12.00
2023-04-26T14:37:44.263Z,12.00
2023-04-26T14:39:46.863Z,12.00
2023-04-26T14:41:49.330Z,12.10
2023-04-26T14:43:51.986Z,12.30
2023-04-26T14:45:55.251Z,12.50
2023-04-26T14:48:11.884Z,12.80
2023-04-26T14:50:14.577Z,12.70
2023-04-26T14:52:17.103Z,12.50
2023-04-26T14:54:20.392Z,12.40
2023-04-26T14:56:23.630Z,12.50
2023-04-26T14:58:26.548Z,12.50
2023-04-26T15:00:30.093Z,12.40
2023-04-26T15:02:32.826Z,12.30
2023-04-26T15:04:36.971Z,12.10
2023-04-26T15:06:54.058Z,12.00
2023-04-26T15:09:18.955Z,11.90
2023-04-26T15:11:32.459Z,11.70
2023-04-26T15:13:44.973Z,11.60
2023-04-26T15:15:59.796Z,11.60
2023-04-26T15:18:02.935Z,11.40
2023-04-26T15:20:06.856Z,11.10
2023-04-26T15:22:09.479Z,11.20
2023-04-26T15:24:11.971Z,11.10
2023-04-26T15:26:14.516Z,11.00
2023-04-26T15:28:17.860Z,11.00
2023-04-26T15:30:21.141Z,11.00
2023-04-26T15:32:23.654Z,10.90
2023-04-26T15:34:27.044Z,11.00
2023-04-26T15:36:29.710Z,11.10
2023-04-26T15:38:33.304Z,11.20
2023-04-26T15:40:38.149Z,11.30
2023-04-26T15:42:40.092Z,11.40
2023-04-26T15:44:42.541Z,11.40
2023-04-26T15:46:45.104Z,11.40
2023-04-26T15:48:47.871Z,11.40
2023-04-26T15:50:52.227Z,11.50
2023-04-26T15:52:54.839Z,11.40
2023-04-26T15:54:57.320Z,11.40
2023-04-26T15:56:59.788Z,11.40
2023-04-26T15:59:02.489Z,11.50
2023-04-26T16:01:05.628Z,11.50
2023-04-26T16:03:08.400Z,11.50
2023-04-26T16:05:11.325Z,11.50
2023-04-26T16:07:14.263Z,11.50
2023-04-26T16:09:25.470Z,11.40
2023-04-26T16:11:23.287Z,11.30
2023-04-26T16:13:26.326Z,11.20
2023-04-26T16:15:29.112Z,11.20
2023-04-26T16:17:32.158Z,11.10
2023-04-26T16:19:35.430Z,11.10
2023-04-26T16:21:39.609Z,11.00
2023-04-26T16:23:42.295Z,11.10
2023-04-26T16:25:47.603Z,11.00
2023-04-26T16:27:50.105Z,11.00
2023-04-26T16:29:52.835Z,10.90
2023-04-26T16:31:55.530Z,10.90
2023-04-26T16:36:15.760Z,10.80
2023-04-26T16:38:18.526Z,10.70
2023-04-26T16:40:22.942Z,10.60
2023-04-26T16:42:25.765Z,10.40
2023-04-26T16:44:28.279Z,10.30
2023-04-26T16:46:30.933Z,10.30
2023-04-26T16:48:34.474Z,10.20
2023-04-26T16:50:36.929Z,10.20
2023-04-26T16:52:39.457Z,10.10
2023-04-26T16:54:41.934Z,10.10
2023-04-26T16:56:44.423Z,10.10
2023-04-26T16:58:47.020Z,10.00
2023-04-26T17:00:49.691Z,9.90
2023-04-26T17:02:52.308Z,9.90
2023-04-26T17:04:55.444Z,9.90
2023-04-26T17:06:58.095Z,9.90
2023-04-26T17:09:00.646Z,9.90
2023-04-26T17:11:03.397Z,9.90
2023-04-26T17:13:06.205Z,9.90
2023-04-26T17:15:09.558Z,9.90
2023-04-26T17:17:12.216Z,9.90
2023-04-26T17:19:14.676Z,9.90
2023-04-26T17:21:17.305Z,9.80
2023-04-26T17:23:20.044Z,9.80
2023-04-26T17:25:23.905Z,9.80
2023-04-26T17:27:26.366Z,9.80
2023-04-26T17:29:28.923Z,9.80
2023-04-26T17:31:31.694Z,9.70
2023-04-26T17:33:34.237Z,9.70
2023-04-26T17:35:36.808Z,9.70
2023-04-26T17:37:41.100Z,9.70
2023-04-26T17:39:43.595Z,9.50
2023-04-26T17:41:46.176Z,9.60
2023-04-26T17:43:48.838Z,9.70
2023-04-26T17:45:51.566Z,9.60
2023-04-26T17:47:54.177Z,9.70
2023-04-26T17:49:56.797Z,9.70
2023-04-26T17:51:59.366Z,9.60
2023-04-26T17:54:01.947Z,9.50
2023-04-26T17:56:06.914Z,9.40
2023-04-26T17:58:09.405Z,9.40
2023-04-26T18:00:13.367Z,9.30
2023-04-26T18:02:17.500Z,9.30
2023-04-26T18:04:20.287Z,9.30
2023-04-26T18:06:23.194Z,9.20
2023-04-26T18:08:26.154Z,9.10
2023-04-26T18:10:28.665Z,9.10
2023-04-26T18:12:31.343Z,9.10
2023-04-26T18:14:33.854Z,9.10
2023-04-26T18:16:36.760Z,9.10
2023-04-26T18:18:39.367Z,9.10
2023-04-26T18:20:42.144Z,9.10
2023-04-26T18:22:44.603Z,9.00
2023-04-26T18:24:47.127Z,9.00
2023-04-26T18:26:49.764Z,8.90
2023-04-26T18:28:52.279Z,8.90
2023-04-26T18:30:57.127Z,8.80
2023-04-26T18:32:59.767Z,8.80
2023-04-26T18:35:04.515Z,8.80
2023-04-26T18:37:07.073Z,8.70
2023-04-26T18:39:09.803Z,8.70
2023-04-26T18:41:12.307Z,8.60
2023-04-26T18:43:14.928Z,8.50
2023-04-26T18:45:17.539Z,8.40
2023-04-26T18:47:20.591Z,8.40
2023-04-26T18:49:23.287Z,8.40
2023-04-26T18:51:26.047Z,8.30
2023-04-26T18:53:28.515Z,8.20
2023-04-26T18:55:31.028Z,8.30
2023-04-26T18:57:33.675Z,8.20
2023-04-26T18:59:36.387Z,8.20
2023-04-26T19:01:39.031Z,8.20
2023-04-26T19:03:42.168Z,8.10
2023-04-26T19:05:44.731Z,8.10
2023-04-26T19:07:47.255Z,8.10
2023-04-26T19:09:54.174Z,8.10
2023-04-26T19:11:54.373Z,8.00
2023-04-26T19:13:56.852Z,8.00
2023-04-26T19:18:17.820Z,7.90
2023-04-26T19:20:20.345Z,7.90
2023-04-26T19:22:22.929Z,7.90
2023-04-26T19:24:25.392Z,7.90
2023-04-26T19:26:28.248Z,7.90
2023-04-26T19:28:30.926Z,7.90
2023-04-26T19:30:33.424Z,7.70
2023-04-26T19:32:37.000Z,7.70
2023-04-26T19:34:40.140Z,7.70
2023-04-26T19:36:42.946Z,7.70
2023-04-26T19:38:48.675Z,7.70
2023-04-26T19:40:52.354Z,7.70
2023-04-26T19:42:54.867Z,7.60
2023-04-26T19:47:13.620Z,7.70
2023-04-26T19:49:17.115Z,7.70
2023-04-26T19:51:19.737Z,7.70
2023-04-26T19:53:22.808Z,7.70
2023-04-26T19:55:26.675Z,7.60
2023-04-26T19:57:29.604Z,7.70
2023-04-26T19:59:32.109Z,7.60
2023-04-26T20:01:34.675Z,7.60
2023-04-26T20:03:38.657Z,7.60
2023-04-26T20:05:41.392Z,7.60
2023-04-26T20:07:43.894Z,7.70
2023-04-26T20:09:46.371Z,7.60
2023-04-26T20:11:49.255Z,7.50
2023-04-26T20:13:51.735Z,7.50
2023-04-26T20:15:54.253Z,7.40
2023-04-26T20:17:57.053Z,7.40
2023-04-26T20:19:59.609Z,7.40
2023-04-26T20:22:02.076Z,7.30
2023-04-26T20:24:05.759Z,7.30
2023-04-26T20:26:08.246Z,7.30
2023-04-26T20:28:10.892Z,7.30
2023-04-26T20:30:14.001Z,7.40
2023-04-26T20:32:16.599Z,7.40
2023-04-26T20:34:19.160Z,7.40
2023-04-26T20:36:21.602Z,7.40
2023-04-26T20:38:24.114Z,7.50
2023-04-26T20:40:26.941Z,7.60
2023-04-26T20:42:29.401Z,7.60
2023-04-26T20:44:31.897Z,7.60
2023-04-26T20:46:34.635Z,7.60
2023-04-26T20:48:37.407Z,7.60
2023-04-26T20:50:41.025Z,7.60
2023-04-26T20:52:44.487Z,7.50
2023-04-26T20:54:46.937Z,7.50
2023-04-26T20:56:49.439Z,7.40
2023-04-26T20:58:52.083Z,7.40
2023-04-26T21:00:54.983Z,7.30
2023-04-26T21:02:57.812Z,7.30
2023-04-26T21:05:00.543Z,7.20
2023-04-26T21:07:03.026Z,7.20
2023-04-26T21:09:05.599Z,7.20
2023-04-26T21:11:08.301Z,7.20
2023-04-26T21:13:10.755Z,7.20
2023-04-26T21:15:13.491Z,7.20
2023-04-26T21:17:16.183Z,7.10
2023-04-26T21:19:18.769Z,7.00
2023-04-26T21:21:21.270Z,7.00
2023-04-26T21:23:23.764Z,7.10
2023-04-26T21:25:27.415Z,7.10
2023-04-26T21:27:29.896Z,7.10
2023-04-26T21:29:32.523Z,7.10
2023-04-26T21:31:35.539Z,7.10
2023-04-26T21:33:38.070Z,7.10
2023-04-26T21:35:40.565Z,7.10
2023-04-26T21:37:43.036Z,7.00
2023-04-26T21:39:45.748Z,7.00
2023-04-26T21:41:48.215Z,7.00
2023-04-26T21:43:51.650Z,7.00
2023-04-26T21:46:17.368Z,7.00
2023-04-26T21:48:24.535Z,6.90
2023-04-26T21:50:27.435Z,6.80
2023-04-26T21:52:31.075Z,6.80
2023-04-26T21:54:33.534Z,6.80
2023-04-26T21:56:36.139Z,6.70
2023-04-26T21:58:38.796Z,6.60
2023-04-26T22:00:41.652Z,6.60
2023-04-26T22:02:44.346Z,6.50
2023-04-26T22:04:48.094Z,6.50
2023-04-26T22:06:51.562Z,6.50
2023-04-26T22:08:54.546Z,6.50
2023-04-26T22:10:57.035Z,6.40
2023-04-26T22:12:59.824Z,6.50
2023-04-26T22:15:02.538Z,6.50
2023-04-26T22:17:05.234Z,6.50
2023-04-26T22:19:08.010Z,6.50
2023-04-26T22:21:10.840Z,6.50
2023-04-26T22:23:13.498Z,6.50
2023-04-26T22:25:16.026Z,6.50
2023-04-26T22:27:18.570Z,6.50
2023-04-26T22:29:21.130Z,6.40
2023-04-26T22:31:23.884Z,6.40
2023-04-26T22:33:26.592Z,6.40
2023-04-26T22:35:29.425Z,6.40
2023-04-26T22:39:48.644Z,6.40
2023-04-26T22:41:51.146Z,6.30
2023-04-26T22:43:53.828Z,6.20
2023-04-26T22:45:56.475Z,6.30
2023-04-26T22:47:59.115Z,6.20
2023-04-26T22:50:01.859Z,6.10
2023-04-26T22:52:11.560Z,6.10
2023-04-26T22:54:09.196Z,6.10
2023-04-26T22:56:11.738Z,6.00
2023-04-26T22:58:16.095Z,6.00
2023-04-26T23:00:19.398Z,6.00
2023-04-26T23:04:38.125Z,6.00
2023-04-26T23:06:40.543Z,6.00
2023-04-26T23:08:43.186Z,5.90
2023-04-26T23:10:46.187Z,6.00
2023-04-26T23:15:06.175Z,5.90
2023-04-26T23:17:10.622Z,5.90
2023-04-26T23:19:13.504Z,5.80
2023-04-26T23:21:16.377Z,5.70
2023-04-26T23:23:18.833Z,5.70
2023-04-26T23:25:21.486Z,5.50
2023-04-26T23:27:24.178Z,5.50
2023-04-26T23:29:27.085Z,5.40
2023-04-26T23:31:29.948Z,5.30
2023-04-26T23:33:33.014Z,5.10
2023-04-26T23:35:39.659Z,5.10
2023-04-26T23:37:42.372Z,5.00
2023-04-26T23:39:45.302Z,4.90
2023-04-26T23:41:48.125Z,4.80
2023-04-26T23:43:51.499Z,4.80
2023-04-26T23:45:54.297Z,4.80
2023-04-26T23:47:56.889Z,4.70
2023-04-26T23:49:59.570Z,4.70
2023-04-26T23:52:02.122Z,4.70
2023-04-26T23:54:04.624Z,4.60
2023-04-26T23:56:07.577Z,4.50
2023-04-26T23:58:10.276Z,4.40
